createdAt,value
2022-12-11T00:00:50.036Z,-2.08
2022-12-11T00:03:16.615Z,-1.96
2022-12-11T00:05:43.607Z,-2.13
2022-12-11T00:08:10.101Z,-2.06
2022-12-11T00:10:37.999Z,-2.25
2022-12-11T00:13:04.766Z,-2.11
2022-12-11T00:15:31.592Z,-2.10
2022-12-11T00:17:58.161Z,-2.13
2022-12-11T00:20:24.906Z,-2.21
2022-12-11T00:22:51.338Z,-2.10
2022-12-11T00:25:17.831Z,-2.33
2022-12-11T00:27:45.427Z,-2.16
2022-12-11T00:30:12.049Z,-2.48
2022-12-11T00:32:38.487Z,-2.48
2022-12-11T00:35:05.137Z,-2.25
2022-12-11T00:37:31.715Z,-2.37
2022-12-11T00:39:58.237Z,-2.13
2022-12-11T00:42:24.804Z,-2.24
2022-12-11T00:44:51.292Z,-2.29
2022-12-11T00:47:17.703Z,-2.29
2022-12-11T00:49:49.549Z,-2.24
2022-12-11T00:52:17.945Z,-2.12
2022-12-11T00:54:44.533Z,-2.10
2022-12-11T00:57:10.889Z,-2.22
2022-12-11T00:59:37.474Z,-2.27
2022-12-11T01:02:03.869Z,-2.38
2022-12-11T01:04:30.323Z,-2.39
2022-12-11T01:06:56.754Z,-2.09
2022-12-11T01:09:41.728Z,-2.23
2022-12-11T01:12:08.183Z,-1.94
2022-12-11T01:14:34.581Z,-1.96
2022-12-11T01:17:00.983Z,-2.25
2022-12-11T01:19:27.423Z,-2.17
2022-12-11T01:21:54.070Z,-2.29
2022-12-11T01:24:20.472Z,-2.38
2022-12-11T01:26:47.020Z,-2.35
2022-12-11T01:29:13.438Z,-2.08
2022-12-11T01:31:39.926Z,-2.46
2022-12-11T01:34:06.317Z,-2.43
2022-12-11T01:36:33.012Z,-2.43
2022-12-11T01:39:01.740Z,-2.47
2022-12-11T01:41:28.192Z,-2.33
2022-12-11T01:43:57.842Z,-2.23
2022-12-11T01:46:24.517Z,-2.08
2022-12-11T01:48:50.931Z,-2.31
2022-12-11T01:51:17.590Z,-2.21
2022-12-11T01:53:47.191Z,-2.40
2022-12-11T01:56:13.598Z,-2.10
2022-12-11T01:58:52.163Z,-2.26
2022-12-11T02:01:22.561Z,-2.38
2022-12-11T02:03:49.347Z,-2.30
2022-12-11T02:06:36.003Z,-2.18
2022-12-11T02:09:03.045Z,-2.16
2022-12-11T02:11:58.725Z,-2.08
2022-12-11T02:14:37.504Z,-2.24
2022-12-11T02:17:16.297Z,-2.25
2022-12-11T02:20:01.675Z,-2.36
2022-12-11T02:22:48.399Z,-2.42
2022-12-11T02:25:35.035Z,-2.30
2022-12-11T02:28:20.125Z,-2.22
2022-12-11T02:30:49.828Z,-2.19
2022-12-11T02:33:16.464Z,-2.23
2022-12-11T02:35:45.282Z,-2.25
2022-12-11T02:38:30.149Z,-2.20
2022-12-11T02:40:57.608Z,-2.37
2022-12-11T02:43:24.775Z,-2.36
2022-12-11T02:45:52.123Z,-2.35
2022-12-11T02:48:20.613Z,-2.19
2022-12-11T02:50:48.922Z,-2.12
2022-12-11T02:53:18.189Z,-2.18
2022-12-11T02:55:45.723Z,-2.02
2022-12-11T02:58:18.094Z,-2.12
2022-12-11T03:00:45.307Z,-2.05
2022-12-11T03:03:12.439Z,-1.90
2022-12-11T03:05:39.493Z,-2.23
2022-12-11T03:08:06.097Z,-2.10
2022-12-11T03:10:32.521Z,-2.08
2022-12-11T03:13:00.337Z,-1.96
2022-12-11T03:15:32.156Z,-2.22
2022-12-11T03:18:01.522Z,-2.31
2022-12-11T03:20:39.155Z,-1.99
2022-12-11T03:23:21.235Z,-2.13
2022-12-11T03:25:54.476Z,-2.11
2022-12-11T03:28:34.151Z,-2.25
2022-12-11T03:31:03.649Z,-2.36
2022-12-11T03:33:33.611Z,-2.44
2022-12-11T03:36:03.411Z,-2.31
2022-12-11T03:38:50.016Z,-2.02
2022-12-11T03:41:18.619Z,-2.41
2022-12-11T03:43:45.814Z,-2.35
2022-12-11T03:46:13.619Z,-1.94
2022-12-11T03:48:41.785Z,-2.29
2022-12-11T03:51:08.548Z,-1.99
2022-12-11T03:53:35.898Z,-2.20
2022-12-11T03:56:03.947Z,-2.20
2022-12-11T03:58:30.432Z,-2.24
2022-12-11T04:00:56.863Z,-2.02
2022-12-11T04:03:23.410Z,-1.92
2022-12-11T04:05:51.438Z,-2.23
2022-12-11T04:08:18.555Z,-2.28
2022-12-11T04:10:44.919Z,-2.41
2022-12-11T04:13:11.375Z,-2.46
2022-12-11T04:15:38.592Z,-2.24
2022-12-11T04:18:23.779Z,-2.43
2022-12-11T04:21:11.446Z,-2.53
2022-12-11T04:24:07.233Z,-2.57
2022-12-11T04:26:33.657Z,-2.52
2022-12-11T04:28:59.980Z,-2.43
2022-12-11T04:31:26.471Z,-2.37
2022-12-11T04:33:53.329Z,-2.28
2022-12-11T04:36:19.814Z,-2.22
2022-12-11T04:38:46.284Z,-2.53
2022-12-11T04:41:14.711Z,-2.25
2022-12-11T04:43:41.393Z,-2.62
2022-12-11T04:46:10.219Z,-2.27
2022-12-11T04:48:37.144Z,-2.44
2022-12-11T04:51:03.568Z,-2.61
2022-12-11T04:53:29.898Z,-2.55
2022-12-11T04:55:56.287Z,-2.39
2022-12-11T04:58:23.346Z,-2.25
2022-12-11T05:00:49.738Z,-2.56
2022-12-11T05:03:16.160Z,-2.43
2022-12-11T05:05:47.730Z,-2.45
2022-12-11T05:08:14.196Z,-2.62
2022-12-11T05:10:43.422Z,-2.35
2022-12-11T05:13:12.126Z,-2.41
2022-12-11T05:15:40.699Z,-2.27
2022-12-11T05:18:07.051Z,-2.22
2022-12-11T05:20:33.424Z,-2.54
2022-12-11T05:22:59.745Z,-2.66
2022-12-11T05:25:26.145Z,-2.33
2022-12-11T05:27:52.516Z,-2.37
2022-12-11T05:30:18.911Z,-2.39
2022-12-11T05:32:45.415Z,-2.46
2022-12-11T05:35:12.162Z,-2.52
2022-12-11T05:37:38.856Z,-2.52
2022-12-11T05:40:06.430Z,-2.62
2022-12-11T05:42:33.393Z,-2.51
2022-12-11T05:44:59.750Z,-2.43
2022-12-11T05:47:26.127Z,-2.57
2022-12-11T05:49:52.555Z,-2.63
2022-12-11T05:52:18.919Z,-2.79
2022-12-11T05:54:48.075Z,-2.69
2022-12-11T05:57:14.486Z,-2.74
2022-12-11T05:59:40.903Z,-2.82
2022-12-11T06:02:07.462Z,-2.68
2022-12-11T06:04:33.949Z,-2.55
2022-12-11T06:07:00.385Z,-2.87
2022-12-11T06:09:26.730Z,-2.78
2022-12-11T06:11:53.103Z,-2.59
2022-12-11T06:14:19.519Z,-2.53
2022-12-11T06:16:45.967Z,-2.72
2022-12-11T06:19:15.436Z,-2.75
2022-12-11T06:21:42.168Z,-2.60
2022-12-11T06:24:10.457Z,-2.64
2022-12-11T06:26:36.868Z,-2.70
2022-12-11T06:29:07.577Z,-2.93
2022-12-11T06:31:35.593Z,-2.80
2022-12-11T06:34:05.043Z,-2.81
2022-12-11T06:36:31.438Z,-2.97
2022-12-11T06:38:57.818Z,-2.78
2022-12-11T06:41:24.316Z,-2.60
2022-12-11T06:43:50.945Z,-2.81
2022-12-11T06:46:18.897Z,-2.42
2022-12-11T06:48:45.853Z,-2.62
2022-12-11T06:51:13.555Z,-2.96
2022-12-11T06:53:40.348Z,-2.77
2022-12-11T06:56:08.177Z,-2.94
2022-12-11T06:58:35.653Z,-2.82
2022-12-11T07:01:02.358Z,-3.14
2022-12-11T07:03:40.340Z,-2.81
2022-12-11T07:06:07.332Z,-2.82
2022-12-11T07:08:36.175Z,-2.85
2022-12-11T07:11:06.655Z,-2.78
2022-12-11T07:13:33.958Z,-2.91
2022-12-11T07:16:02.139Z,-2.85
2022-12-11T07:18:29.283Z,-3.05
2022-12-11T07:20:58.935Z,-2.99
2022-12-11T07:23:25.711Z,-2.91
2022-12-11T07:25:52.779Z,-3.01
2022-12-11T07:28:57.513Z,-2.88
2022-12-11T07:31:37.709Z,-3.08
2022-12-11T07:34:16.411Z,-2.94
2022-12-11T07:43:03.008Z,-2.95
2022-12-11T07:45:50.876Z,-2.93
2022-12-11T07:48:17.766Z,-3.06
2022-12-11T07:50:45.706Z,-3.10
2022-12-11T07:53:12.309Z,-2.88
2022-12-11T07:55:38.993Z,-3.04
2022-12-11T07:58:05.462Z,-3.06
2022-12-11T08:00:31.882Z,-2.77
2022-12-11T08:02:58.719Z,-2.85
2022-12-11T08:05:25.292Z,-3.07
2022-12-11T08:07:51.945Z,-3.10
2022-12-11T08:10:18.511Z,-2.92
2022-12-11T08:12:49.216Z,-2.88
2022-12-11T08:15:25.874Z,-2.97
2022-12-11T08:17:52.528Z,-2.82
2022-12-11T08:20:19.297Z,-2.61
2022-12-11T08:23:02.500Z,-2.97
2022-12-11T08:25:47.848Z,-2.69
2022-12-11T08:28:28.705Z,-2.69
2022-12-11T08:31:25.684Z,-2.81
2022-12-11T08:33:52.807Z,-2.80
2022-12-11T08:36:20.819Z,-2.69
2022-12-11T08:38:47.552Z,-2.61
2022-12-11T08:41:22.001Z,-2.53
2022-12-11T08:43:48.576Z,-2.29
2022-12-11T08:46:15.544Z,-2.44
2022-12-11T08:48:43.127Z,-2.55
2022-12-11T08:51:12.475Z,-2.55
2022-12-11T08:53:39.717Z,-2.31
2022-12-11T08:56:13.591Z,-2.68
2022-12-11T08:58:40.146Z,-2.70
2022-12-11T09:01:13.025Z,-2.29
2022-12-11T09:03:40.240Z,-2.35
2022-12-11T09:06:07.644Z,-2.33
2022-12-11T09:08:34.078Z,-2.50
2022-12-11T09:11:07.594Z,-2.54
2022-12-11T09:13:37.182Z,-2.41
2022-12-11T09:16:05.133Z,-2.64
2022-12-11T09:18:31.587Z,-2.73
2022-12-11T09:21:02.172Z,-2.59
2022-12-11T09:23:28.526Z,-2.56
2022-12-11T09:25:55.148Z,-2.48
2022-12-11T09:28:22.261Z,-2.35
2022-12-11T09:30:48.724Z,-2.32
2022-12-11T09:33:15.236Z,-2.29
2022-12-11T09:35:41.770Z,-2.14
2022-12-11T09:38:08.199Z,-2.36
2022-12-11T09:40:34.573Z,-2.27
2022-12-11T09:43:06.498Z,-2.20
2022-12-11T09:45:33.453Z,-2.60
2022-12-11T09:48:00.360Z,-2.22
2022-12-11T09:50:34.133Z,-2.44
2022-12-11T09:53:00.486Z,-2.56
2022-12-11T09:55:31.455Z,-2.42
2022-12-11T09:58:04.018Z,-2.51
2022-12-11T10:00:30.388Z,-2.38
2022-12-11T10:02:59.893Z,-2.39
2022-12-11T10:05:45.312Z,-2.12
2022-12-11T10:08:17.898Z,-2.08
2022-12-11T10:10:51.753Z,-2.06
2022-12-11T10:13:37.042Z,-2.20
2022-12-11T10:16:09.544Z,-2.41
2022-12-11T10:18:36.632Z,-2.37
2022-12-11T10:21:03.491Z,-2.33
2022-12-11T10:23:36.565Z,-2.41
2022-12-11T10:26:08.172Z,-2.37
2022-12-11T10:28:35.299Z,-2.26
2022-12-11T10:31:18.809Z,-2.24
2022-12-11T10:33:53.338Z,-2.20
2022-12-11T10:36:23.655Z,-2.34
2022-12-11T10:38:50.118Z,-2.27
2022-12-11T10:41:21.620Z,-2.15
2022-12-11T10:43:49.289Z,-2.18
2022-12-11T10:46:17.756Z,-1.83
2022-12-11T10:48:54.731Z,-2.07
2022-12-11T10:51:22.279Z,-1.87
2022-12-11T10:53:52.793Z,-2.11
2022-12-11T10:56:29.253Z,-2.23
2022-12-11T10:58:56.925Z,-2.05
2022-12-11T11:01:25.460Z,-2.04
2022-12-11T11:03:54.229Z,-2.26
2022-12-11T11:06:21.573Z,-2.15
2022-12-11T11:08:49.082Z,-2.28
2022-12-11T11:11:27.613Z,-2.10
2022-12-11T11:14:06.191Z,-2.35
2022-12-11T11:16:35.819Z,-2.27
2022-12-11T11:19:02.265Z,-2.27
2022-12-11T11:21:30.141Z,-2.12
2022-12-11T11:23:56.769Z,-2.07
2022-12-11T11:26:23.834Z,-2.16
2022-12-11T11:28:54.984Z,-2.14
2022-12-11T11:31:22.898Z,-2.12
2022-12-11T11:34:00.240Z,-1.95
2022-12-11T11:36:27.733Z,-1.88
2022-12-11T11:39:10.520Z,-1.91
2022-12-11T11:41:46.944Z,-2.07
2022-12-11T11:44:16.198Z,-2.02
2022-12-11T11:46:44.486Z,-1.86
2022-12-11T11:49:20.324Z,-2.18
2022-12-11T11:51:49.497Z,-1.90
2022-12-11T11:54:36.151Z,-2.08
2022-12-11T11:57:13.836Z,-2.38
2022-12-11T11:59:42.941Z,-2.10
2022-12-11T12:02:17.002Z,-1.99
2022-12-11T12:04:44.107Z,-1.62
2022-12-11T12:07:29.475Z,-1.79
2022-12-11T12:10:14.642Z,-1.87
2022-12-11T12:12:46.983Z,-1.75
2022-12-11T12:15:36.718Z,-1.86
2022-12-11T12:18:21.641Z,-1.66
2022-12-11T12:20:58.857Z,-1.60
2022-12-11T12:23:44.024Z,-1.81
2022-12-11T12:26:25.835Z,-1.85
2022-12-11T12:28:58.670Z,-1.71
2022-12-11T12:31:37.920Z,-1.47
2022-12-11T12:34:17.409Z,-1.54
2022-12-11T12:37:02.659Z,-1.61
2022-12-11T12:39:35.381Z,-1.43
2022-12-11T12:42:22.073Z,-1.25
2022-12-11T12:44:48.379Z,-1.48
2022-12-11T12:47:17.596Z,-1.48
2022-12-11T12:49:45.953Z,-1.68
2022-12-11T12:52:16.515Z,-1.71
2022-12-11T12:55:05.132Z,-1.79
2022-12-11T12:57:32.771Z,-1.35
2022-12-11T13:00:22.548Z,-1.53
2022-12-11T13:02:50.683Z,-1.56
2022-12-11T13:05:30.754Z,-1.56
2022-12-11T13:07:59.240Z,-1.74
2022-12-11T13:10:28.380Z,-1.71
2022-12-11T13:12:55.020Z,-1.66
2022-12-11T13:15:33.194Z,-1.76
2022-12-11T13:18:00.383Z,-1.81
2022-12-11T13:20:28.225Z,-1.47
2022-12-11T13:23:14.983Z,-1.40
2022-12-11T13:25:47.346Z,-1.66
2022-12-11T13:28:28.022Z,-1.61
2022-12-11T13:31:29.184Z,-1.59
2022-12-11T13:33:57.281Z,-1.62
2022-12-11T13:36:29.108Z,-1.76
2022-12-11T13:38:58.670Z,-1.68
2022-12-11T13:41:25.181Z,-1.56
2022-12-11T13:43:52.368Z,-1.60
2022-12-11T13:46:27.209Z,-1.59
2022-12-11T13:48:57.300Z,-1.98
2022-12-11T13:51:24.801Z,-1.91
2022-12-11T13:54:16.305Z,-1.69
2022-12-11T13:56:58.498Z,-1.70
2022-12-11T13:59:27.085Z,-1.53
2022-12-11T14:01:54.991Z,-1.76
2022-12-11T14:04:22.663Z,-1.52
2022-12-11T14:06:49.414Z,-1.56
2022-12-11T14:09:18.815Z,-1.46
2022-12-11T14:11:46.657Z,-1.49
2022-12-11T14:14:25.406Z,-1.52
2022-12-11T14:16:52.356Z,-1.40
2022-12-11T14:19:22.124Z,-1.49
2022-12-11T14:21:58.121Z,-1.64
2022-12-11T14:24:24.828Z,-1.56
2022-12-11T14:26:52.312Z,-1.49
2022-12-11T14:29:34.762Z,-1.32
2022-12-11T14:32:05.780Z,-1.55
2022-12-11T14:34:35.381Z,-1.88
2022-12-11T14:37:03.870Z,-1.71
2022-12-11T14:39:35.180Z,-1.71
2022-12-11T14:42:08.787Z,-1.91
2022-12-11T14:44:41.705Z,-1.86
2022-12-11T14:47:14.599Z,-1.69
2022-12-11T14:50:02.422Z,-1.60
2022-12-11T14:52:52.649Z,-1.66
2022-12-11T14:55:27.112Z,-1.85
2022-12-11T14:57:56.848Z,-1.70
2022-12-11T15:00:26.546Z,-1.53
2022-12-11T15:02:59.058Z,-1.73
2022-12-11T15:05:26.088Z,-1.63
2022-12-11T15:08:04.137Z,-1.87
2022-12-11T15:10:59.609Z,-1.59
2022-12-11T15:13:26.099Z,-1.74
2022-12-11T15:15:53.289Z,-1.94
2022-12-11T15:18:25.832Z,-1.77
2022-12-11T15:20:53.908Z,-1.73
2022-12-11T15:23:20.403Z,-1.60
2022-12-11T15:25:54.186Z,-1.54
2022-12-11T15:28:28.301Z,-1.55
2022-12-11T15:30:59.746Z,-1.53
2022-12-11T15:33:32.548Z,-1.67
2022-12-11T15:36:05.742Z,-1.67
2022-12-11T15:38:36.991Z,-1.68
2022-12-11T15:41:04.261Z,-1.77
2022-12-11T15:43:32.197Z,-1.65
2022-12-11T15:46:05.061Z,-1.81
2022-12-11T15:48:31.800Z,-1.70
2022-12-11T15:51:22.611Z,-1.73
2022-12-11T16:01:19.068Z,-1.64
2022-12-11T16:03:45.930Z,-1.80
2022-12-11T16:06:15.601Z,-1.76
2022-12-11T16:08:42.164Z,-1.59
2022-12-11T16:11:17.198Z,-1.79
2022-12-11T16:13:43.844Z,-1.70
2022-12-11T16:16:10.570Z,-1.82
2022-12-11T16:18:37.313Z,-1.83
2022-12-11T16:21:09.166Z,-1.78
2022-12-11T16:23:35.691Z,-1.62
2022-12-11T16:26:06.583Z,-2.19
2022-12-11T16:28:33.985Z,-1.92
2022-12-11T16:31:00.493Z,-1.79
2022-12-11T16:33:26.960Z,-1.83
2022-12-11T16:35:53.427Z,-1.91
2022-12-11T16:38:19.813Z,-1.72
2022-12-11T16:40:46.143Z,-1.69
2022-12-11T16:43:12.587Z,-1.82
2022-12-11T16:45:39.137Z,-1.79
2022-12-11T16:48:05.699Z,-1.69
2022-12-11T16:50:32.516Z,-1.66
2022-12-11T16:52:59.313Z,-1.67
2022-12-11T16:55:25.771Z,-1.66
2022-12-11T16:57:52.414Z,-1.64
2022-12-11T17:00:22.353Z,-1.69
2022-12-11T17:02:49.155Z,-1.65
2022-12-11T17:05:15.809Z,-1.68
2022-12-11T17:07:42.412Z,-1.83
2022-12-11T17:21:08.522Z,-1.72
2022-12-11T17:23:35.048Z,-2.11
2022-12-11T17:26:02.625Z,-2.03
2022-12-11T17:28:29.860Z,-1.94
2022-12-11T17:30:56.350Z,-1.84
2022-12-11T17:33:23.278Z,-1.80
2022-12-11T17:35:50.028Z,-1.80
2022-12-11T17:38:16.472Z,-1.60
2022-12-11T17:40:43.706Z,-1.78
2022-12-11T17:43:11.393Z,-1.80
2022-12-11T17:45:42.075Z,-1.88
2022-12-11T17:48:08.841Z,-1.91
2022-12-11T17:50:39.967Z,-1.90
2022-12-11T17:53:06.614Z,-1.83
2022-12-11T17:55:33.790Z,-1.88
2022-12-11T17:58:00.623Z,-2.18
2022-12-11T18:00:31.644Z,-2.06
2022-12-11T18:02:59.658Z,-2.18
2022-12-11T18:05:26.145Z,-2.13
2022-12-11T18:07:57.470Z,-1.91
2022-12-11T18:10:24.428Z,-1.98
2022-12-11T18:12:50.978Z,-1.89
2022-12-11T18:15:20.182Z,-1.95
2022-12-11T18:17:54.582Z,-2.06
2022-12-11T18:20:25.009Z,-2.07
2022-12-11T18:23:00.603Z,-2.11
2022-12-11T18:25:31.906Z,-2.18
2022-12-11T18:27:59.819Z,-2.07
2022-12-11T18:30:26.821Z,-2.15
2022-12-11T18:32:55.335Z,-2.17
2022-12-11T18:35:25.670Z,-2.18
2022-12-11T18:37:59.490Z,-2.10
2022-12-11T18:40:29.519Z,-2.43
2022-12-11T18:43:00.800Z,-2.31
2022-12-11T18:45:42.233Z,-2.30
2022-12-11T18:48:09.741Z,-2.33
2022-12-11T18:50:45.931Z,-2.26
2022-12-11T18:53:17.548Z,-2.35
2022-12-11T18:55:49.778Z,-2.32
2022-12-11T19:01:44.417Z,-2.15
2022-12-11T19:04:11.212Z,-2.70
2022-12-11T19:06:37.850Z,-2.28
2022-12-11T19:09:05.464Z,-2.17
2022-12-11T19:11:33.075Z,-2.14
2022-12-11T19:14:05.032Z,-2.27
2022-12-11T19:17:06.783Z,-2.25
2022-12-11T19:30:34.167Z,-2.14
2022-12-11T19:33:00.792Z,-2.19
2022-12-11T19:35:29.556Z,-2.12
2022-12-11T19:37:59.610Z,-2.10
2022-12-11T19:40:30.345Z,-2.14
2022-12-11T19:42:56.754Z,-2.10
2022-12-11T19:45:53.726Z,-2.16
2022-12-11T19:48:21.468Z,-2.37
2022-12-11T19:50:52.183Z,-2.30
2022-12-11T19:53:18.846Z,-2.11
2022-12-11T19:55:52.115Z,-2.07
2022-12-11T19:58:18.871Z,-2.37
2022-12-11T20:00:56.253Z,-2.18
2022-12-11T20:03:28.913Z,-2.19
2022-12-11T20:06:02.603Z,-2.16
2022-12-11T20:08:58.384Z,-2.28
2022-12-11T20:11:24.976Z,-2.29
2022-12-11T20:14:00.358Z,-2.35
2022-12-11T20:16:53.273Z,-2.36
2022-12-11T20:19:13.200Z,-2.22
2022-12-11T20:21:39.607Z,-2.19
2022-12-11T20:24:06.282Z,-2.09
2022-12-11T20:26:36.062Z,-2.02
2022-12-11T20:29:05.266Z,-2.08
2022-12-11T20:31:31.749Z,-2.47
2022-12-11T20:33:58.297Z,-2.26
2022-12-11T20:36:25.289Z,-2.07
2022-12-11T20:38:51.965Z,-2.22
2022-12-11T20:41:19.835Z,-2.16
2022-12-11T20:43:49.615Z,-2.21
2022-12-11T20:46:16.885Z,-2.23
2022-12-11T20:48:46.854Z,-2.11
2022-12-11T20:51:18.584Z,-2.12
2022-12-11T20:53:50.297Z,-2.19
2022-12-11T20:56:18.837Z,-2.16
2022-12-11T20:58:45.570Z,-2.11
2022-12-11T21:01:19.878Z,-2.02
2022-12-11T21:03:47.051Z,-2.16
2022-12-11T21:06:31.237Z,-2.16
2022-12-11T21:08:59.141Z,-1.96
2022-12-11T21:11:35.095Z,-1.93
2022-12-11T21:14:01.425Z,-1.81
2022-12-11T21:16:28.548Z,-2.03
2022-12-11T21:18:58.866Z,-2.02
2022-12-11T21:21:26.067Z,-1.85
2022-12-11T21:23:52.498Z,-2.08
2022-12-11T21:26:18.937Z,-2.07
2022-12-11T21:28:45.352Z,-2.05
2022-12-11T21:31:13.302Z,-2.04
2022-12-11T21:33:39.731Z,-2.04
2022-12-11T21:36:06.889Z,-2.01
2022-12-11T21:38:33.325Z,-2.02
2022-12-11T21:41:06.586Z,-1.89
2022-12-11T21:43:33.982Z,-1.84
2022-12-11T21:46:02.002Z,-1.94
2022-12-11T21:48:29.286Z,-2.11
2022-12-11T21:50:56.097Z,-2.01
2022-12-11T21:53:22.448Z,-1.97
2022-12-11T21:55:48.881Z,-1.82
2022-12-11T21:58:15.696Z,-2.02
2022-12-11T22:00:42.135Z,-2.06
2022-12-11T22:03:08.564Z,-2.18
2022-12-11T22:05:35.036Z,-1.98
2022-12-11T22:08:01.470Z,-1.85
2022-12-11T22:10:28.147Z,-1.91
2022-12-11T22:12:54.613Z,-1.97
2022-12-11T22:15:20.997Z,-1.86
2022-12-11T22:17:47.383Z,-1.87
2022-12-11T22:20:14.647Z,-2.03
2022-12-11T22:22:41.011Z,-2.09
2022-12-11T22:25:07.931Z,-2.04
2022-12-11T22:27:34.292Z,-1.94
2022-12-11T22:30:00.705Z,-1.97
2022-12-11T22:32:27.735Z,-1.92
2022-12-11T22:34:54.169Z,-1.98
2022-12-11T22:37:20.511Z,-2.12
2022-12-11T22:39:46.887Z,-2.22
2022-12-11T22:42:13.197Z,-2.16
2022-12-11T22:44:39.553Z,-2.16
2022-12-11T22:47:05.887Z,-2.03
2022-12-11T22:49:32.240Z,-2.08
2022-12-11T22:51:58.621Z,-2.08
2022-12-11T22:54:24.918Z,-1.93
2022-12-11T22:56:51.335Z,-2.02
2022-12-11T22:59:17.675Z,-2.02
2022-12-11T23:01:44.108Z,-2.06
2022-12-11T23:04:10.532Z,-2.07
2022-12-11T23:06:36.928Z,-1.97
2022-12-11T23:09:03.745Z,-2.01
2022-12-11T23:11:31.737Z,-2.22
2022-12-11T23:13:58.160Z,-2.08
2022-12-11T23:16:25.112Z,-1.92
2022-12-11T23:18:51.551Z,-1.94
2022-12-11T23:21:17.902Z,-1.85
2022-12-11T23:23:45.453Z,-1.93
2022-12-11T23:26:12.766Z,-2.23
2022-12-11T23:28:50.945Z,-1.90
2022-12-11T23:31:17.957Z,-1.90
2022-12-11T23:33:44.852Z,-2.20
2022-12-11T23:36:11.226Z,-2.08
2022-12-11T23:38:38.138Z,-2.11
2022-12-11T23:41:04.857Z,-2.08
2022-12-11T23:43:31.658Z,-1.88
2022-12-11T23:45:58.080Z,-1.86
2022-12-11T23:48:24.504Z,-1.82
2022-12-11T23:50:51.098Z,-1.75
2022-12-11T23:53:17.386Z,-1.91
2022-12-11T23:55:44.577Z,-2.08
2022-12-11T23:58:11.079Z,-1.92
